createdAt,value
2022-11-24T00:01:22.746Z,25.30
2022-11-24T00:03:56.996Z,24.30
2022-11-24T00:06:25.659Z,23.87
2022-11-24T00:08:54.876Z,24.70
2022-11-24T00:11:25.256Z,23.97
2022-11-24T00:13:54.045Z,25.83
2022-11-24T00:16:24.257Z,25.17
2022-11-24T00:18:56.149Z,25.57
2022-11-24T00:21:25.595Z,25.27
2022-11-24T00:23:54.138Z,25.17
2022-11-24T00:26:23.834Z,25.33
2022-11-24T00:28:53.768Z,25.63
2022-11-24T00:31:23.780Z,24.53
2022-11-24T00:33:55.992Z,24.30
2022-11-24T00:36:25.742Z,26.20
2022-11-24T00:38:55.648Z,25.93
2022-11-24T00:41:24.671Z,25.70
2022-11-24T00:43:53.441Z,26.63
2022-11-24T00:46:22.573Z,26.50
2022-11-24T00:48:51.113Z,25.77
2022-11-24T00:51:22.900Z,25.97
2022-11-24T00:53:53.122Z,26.40
2022-11-24T00:56:21.438Z,26.20
2022-11-24T00:58:50.544Z,26.33
2022-11-24T01:01:21.386Z,27.87
2022-11-24T01:03:50.319Z,28.67
2022-11-24T01:06:21.835Z,24.53
2022-11-24T01:08:50.338Z,26.37
2022-11-24T01:11:20.425Z,27.00
2022-11-24T01:13:52.956Z,25.13
2022-11-24T01:16:23.089Z,24.97
2022-11-24T01:18:51.556Z,26.00
2022-11-24T01:21:22.297Z,25.07
2022-11-24T01:23:51.288Z,27.00
2022-11-24T01:26:21.958Z,26.03
2022-11-24T01:28:54.356Z,26.23
2022-11-24T01:31:23.204Z,26.80
2022-11-24T01:33:51.786Z,27.47
2022-11-24T01:36:21.948Z,26.27
2022-11-24T01:38:50.494Z,24.53
2022-11-24T01:41:20.931Z,25.73
2022-11-24T01:43:50.268Z,25.40
2022-11-24T01:46:23.905Z,24.07
2022-11-24T01:48:58.953Z,25.67
2022-11-24T01:51:31.872Z,22.63
2022-11-24T01:54:04.276Z,24.13
2022-11-24T01:56:34.834Z,23.80
2022-11-24T01:59:04.642Z,24.40
2022-11-24T02:01:33.396Z,25.10
2022-11-24T02:04:04.928Z,26.23
2022-11-24T02:06:38.079Z,26.70
2022-11-24T02:09:14.433Z,25.30
2022-11-24T02:11:43.851Z,24.57
2022-11-24T02:14:15.035Z,25.67
2022-11-24T02:16:45.668Z,23.73
2022-11-24T02:19:24.479Z,24.13
2022-11-24T02:21:54.593Z,24.00
2022-11-24T02:24:31.620Z,23.30
2022-11-24T02:27:01.567Z,23.50
2022-11-24T02:29:29.915Z,23.13
2022-11-24T02:32:01.515Z,22.83
2022-11-24T02:34:29.856Z,22.97
2022-11-24T02:36:58.400Z,22.20
2022-11-24T02:39:26.712Z,23.80
2022-11-24T02:41:58.330Z,22.87
2022-11-24T02:44:34.041Z,22.67
2022-11-24T02:47:07.723Z,23.60
2022-11-24T02:49:36.395Z,23.23
2022-11-24T02:52:05.324Z,22.70
2022-11-24T02:54:34.348Z,23.33
2022-11-24T02:57:02.934Z,23.67
2022-11-24T02:59:35.013Z,22.57
2022-11-24T03:02:03.483Z,21.47
2022-11-24T03:04:32.326Z,22.70
2022-11-24T03:07:00.973Z,22.10
2022-11-24T03:09:29.381Z,23.20
2022-11-24T03:11:57.671Z,21.70
2022-11-24T03:14:26.054Z,20.73
2022-11-24T03:16:55.810Z,22.37
2022-11-24T03:19:24.125Z,22.03
2022-11-24T03:21:52.636Z,21.10
2022-11-24T03:24:21.064Z,19.43
2022-11-24T03:26:49.381Z,21.23
2022-11-24T03:29:18.018Z,21.13
2022-11-24T03:31:46.426Z,20.07
2022-11-24T03:34:16.125Z,20.80
2022-11-24T03:36:44.905Z,20.93
2022-11-24T03:39:13.359Z,22.87
2022-11-24T03:41:41.673Z,20.70
2022-11-24T03:44:10.036Z,21.33
2022-11-24T03:46:38.423Z,20.83
2022-11-24T03:49:07.040Z,20.43
2022-11-24T03:51:36.747Z,19.93
2022-11-24T03:54:05.215Z,21.07
2022-11-24T03:56:33.509Z,21.07
2022-11-24T03:59:01.979Z,20.10
2022-11-24T04:01:30.397Z,19.40
2022-11-24T04:03:58.744Z,21.17
2022-11-24T04:06:27.013Z,19.90
2022-11-24T04:08:56.712Z,20.00
2022-11-24T04:11:42.824Z,20.50
2022-11-24T04:14:13.701Z,19.73
2022-11-24T04:16:42.265Z,20.27
2022-11-24T04:19:10.481Z,20.33
2022-11-24T04:21:38.728Z,19.57
2022-11-24T04:24:08.529Z,19.57
2022-11-24T04:26:36.697Z,19.43
2022-11-24T04:29:04.886Z,19.57
2022-11-24T04:31:33.177Z,18.73
2022-11-24T04:34:01.408Z,18.30
2022-11-24T04:36:29.592Z,19.00
2022-11-24T04:39:24.751Z,21.57
2022-11-24T04:41:48.391Z,18.87
2022-11-24T04:44:16.668Z,20.03
2022-11-24T04:46:45.016Z,18.30
2022-11-24T04:49:13.261Z,17.83
2022-11-24T04:51:42.137Z,19.20
2022-11-24T04:54:12.598Z,18.90
2022-11-24T04:56:41.583Z,18.40
2022-11-24T04:59:14.609Z,18.40
2022-11-24T05:01:43.052Z,17.47
2022-11-24T05:04:12.058Z,18.10
2022-11-24T05:06:41.036Z,18.10
2022-11-24T05:09:09.284Z,17.60
2022-11-24T05:11:37.403Z,17.63
2022-11-24T05:14:05.510Z,17.77
2022-11-24T05:16:35.166Z,17.90
2022-11-24T05:19:03.367Z,16.10
2022-11-24T05:21:31.559Z,17.53
2022-11-24T05:23:59.638Z,19.07
2022-11-24T05:26:27.944Z,18.10
2022-11-24T05:28:56.141Z,23.23
2022-11-24T05:31:24.319Z,17.87
2022-11-24T05:33:53.865Z,17.17
2022-11-24T05:36:39.585Z,18.87
2022-11-24T05:39:07.788Z,17.13
2022-11-24T05:41:35.959Z,17.97
2022-11-24T05:44:04.253Z,17.00
2022-11-24T05:46:32.396Z,17.20
2022-11-24T05:49:01.866Z,16.27
2022-11-24T05:51:30.503Z,15.30
2022-11-24T05:53:58.597Z,15.20
2022-11-24T05:56:26.823Z,16.03
2022-11-24T05:58:55.171Z,16.27
2022-11-24T06:01:23.267Z,16.10
2022-11-24T06:03:51.411Z,16.17
2022-11-24T06:06:20.928Z,15.37
2022-11-24T06:08:49.481Z,15.10
2022-11-24T06:11:20.489Z,15.90
2022-11-24T06:13:49.551Z,15.60
2022-11-24T06:16:17.927Z,15.67
2022-11-24T06:18:46.127Z,17.03
2022-11-24T06:21:14.288Z,16.37
2022-11-24T06:23:44.072Z,14.83
2022-11-24T06:26:12.396Z,15.07
2022-11-24T06:28:40.622Z,15.30
2022-11-24T06:31:08.775Z,16.43
2022-11-24T06:33:38.337Z,15.77
2022-11-24T06:36:08.681Z,15.07
2022-11-24T06:38:37.787Z,15.93
2022-11-24T06:41:10.610Z,14.30
2022-11-24T06:43:38.796Z,15.90
2022-11-24T06:46:07.497Z,16.07
2022-11-24T06:48:36.189Z,14.57
2022-11-24T06:51:06.807Z,13.47
2022-11-24T06:53:37.783Z,13.27
2022-11-24T06:56:15.300Z,13.83
2022-11-24T06:58:46.013Z,14.83
2022-11-24T07:01:16.415Z,13.50
2022-11-24T07:03:44.779Z,14.63
2022-11-24T07:06:13.015Z,15.47
2022-11-24T07:08:41.267Z,14.23
2022-11-24T07:11:12.789Z,15.07
2022-11-24T07:13:41.063Z,15.33
2022-11-24T07:16:14.559Z,17.13
2022-11-24T07:18:43.077Z,17.47
2022-11-24T07:21:11.749Z,15.60
2022-11-24T07:23:40.187Z,16.20
2022-11-24T07:26:11.089Z,14.17
2022-11-24T07:28:39.499Z,14.13
2022-11-24T07:31:08.719Z,15.33
2022-11-24T07:33:37.124Z,16.10
2022-11-24T07:36:07.194Z,13.47
2022-11-24T07:38:35.912Z,14.33
2022-11-24T07:41:05.300Z,15.30
2022-11-24T07:43:37.422Z,15.40
2022-11-24T07:46:06.850Z,13.93
2022-11-24T07:48:35.106Z,15.30
2022-11-24T07:51:04.409Z,15.83
2022-11-24T07:53:33.451Z,15.47
2022-11-24T07:56:03.095Z,15.17
2022-11-24T07:58:33.347Z,16.13
2022-11-24T08:01:11.185Z,14.90
2022-11-24T08:03:39.527Z,14.87
2022-11-24T08:06:23.965Z,15.23
2022-11-24T08:08:53.427Z,14.83
2022-11-24T08:11:21.877Z,15.73
2022-11-24T08:13:50.033Z,15.87
2022-11-24T08:16:20.694Z,16.67
2022-11-24T08:18:52.080Z,14.73
2022-11-24T08:21:23.029Z,14.93
2022-11-24T08:23:54.542Z,14.70
2022-11-24T08:26:23.031Z,14.10
2022-11-24T08:28:55.694Z,14.77
2022-11-24T08:31:27.335Z,13.80
2022-11-24T08:33:56.855Z,13.73
2022-11-24T08:36:24.985Z,13.40
2022-11-24T08:38:56.029Z,14.80
2022-11-24T08:41:25.266Z,14.20
2022-11-24T08:43:53.720Z,13.60
2022-11-24T08:46:23.769Z,13.53
2022-11-24T08:48:54.768Z,13.00
2022-11-24T08:51:25.799Z,12.73
2022-11-24T08:53:56.714Z,12.70
2022-11-24T08:56:25.329Z,13.43
2022-11-24T08:58:54.381Z,13.27
2022-11-24T09:01:23.153Z,15.70
2022-11-24T09:03:53.205Z,13.83
2022-11-24T09:06:23.655Z,14.43
2022-11-24T09:08:52.287Z,14.47
2022-11-24T09:11:21.096Z,16.33
2022-11-24T09:13:49.463Z,16.37
2022-11-24T09:16:19.561Z,15.87
2022-11-24T09:18:48.419Z,14.97
2022-11-24T09:21:20.245Z,14.17
2022-11-24T09:23:50.230Z,15.37
2022-11-24T09:26:20.739Z,14.53
2022-11-24T09:28:48.981Z,15.37
2022-11-24T09:31:18.986Z,13.67
2022-11-24T09:33:47.664Z,15.53
2022-11-24T09:36:17.789Z,14.23
2022-11-24T09:38:46.093Z,14.67
2022-11-24T09:41:40.201Z,15.43
2022-11-24T09:44:31.262Z,14.90
2022-11-24T09:47:07.437Z,15.33
2022-11-24T09:49:47.255Z,16.17
2022-11-24T09:52:23.795Z,17.70
2022-11-24T09:54:56.263Z,15.00
2022-11-24T09:57:31.418Z,18.00
2022-11-24T10:00:11.631Z,16.73
2022-11-24T10:02:40.045Z,15.27
2022-11-24T10:05:08.952Z,15.33
2022-11-24T10:07:47.881Z,15.70
2022-11-24T10:10:24.467Z,15.03
2022-11-24T10:13:04.703Z,17.17
2022-11-24T10:15:42.453Z,16.10
2022-11-24T10:18:36.004Z,15.67
2022-11-24T10:21:25.777Z,14.50
2022-11-24T10:24:24.206Z,15.53
2022-11-24T10:26:55.323Z,14.97
2022-11-24T10:29:29.705Z,15.00
2022-11-24T10:31:58.840Z,15.33
2022-11-24T10:34:30.967Z,15.40
2022-11-24T10:37:04.959Z,15.83
2022-11-24T10:39:41.903Z,14.50
2022-11-24T10:42:19.163Z,16.23
2022-11-24T10:44:47.477Z,15.23
2022-11-24T10:47:22.553Z,14.77
2022-11-24T10:49:56.445Z,14.50
2022-11-24T10:52:26.680Z,15.10
2022-11-24T10:54:58.725Z,14.70
2022-11-24T10:57:32.351Z,14.73
2022-11-24T11:00:01.415Z,15.13
2022-11-24T11:02:32.683Z,15.43
2022-11-24T11:05:37.887Z,14.80
2022-11-24T11:08:19.763Z,15.00
2022-11-24T11:10:49.932Z,19.23
2022-11-24T11:13:26.636Z,16.17
2022-11-24T11:15:54.934Z,16.67
2022-11-24T11:18:24.029Z,15.87
2022-11-24T11:20:55.238Z,15.50
2022-11-24T11:23:28.347Z,15.93
2022-11-24T11:26:30.909Z,16.73
2022-11-24T11:34:52.314Z,15.10
2022-11-24T11:37:34.161Z,15.77
2022-11-24T11:40:03.390Z,16.03
2022-11-24T11:43:01.311Z,14.30
2022-11-24T11:45:30.174Z,15.17
2022-11-24T11:48:08.758Z,16.13
2022-11-24T11:51:21.232Z,15.77
2022-11-24T11:53:45.231Z,15.70
2022-11-24T11:56:25.365Z,16.23
2022-11-24T11:59:28.024Z,15.57
2022-11-24T12:02:26.064Z,14.73
2022-11-24T12:04:57.876Z,15.43
2022-11-24T12:07:50.136Z,15.77
2022-11-24T12:10:28.692Z,14.23
2022-11-24T12:13:11.451Z,15.80
2022-11-24T12:15:42.786Z,16.27
2022-11-24T12:18:55.855Z,15.23
2022-11-24T12:21:24.682Z,15.43
2022-11-24T12:24:04.699Z,14.53
2022-11-24T12:26:40.718Z,15.60
2022-11-24T12:29:34.982Z,18.07
2022-11-24T12:32:11.013Z,15.67
2022-11-24T12:34:50.174Z,14.33
2022-11-24T12:37:41.739Z,14.83
2022-11-24T12:40:16.189Z,14.37
2022-11-24T12:42:56.949Z,14.40
2022-11-24T12:45:34.326Z,14.67
2022-11-24T12:48:16.533Z,15.47
2022-11-24T12:50:46.915Z,20.20
2022-11-24T12:53:18.027Z,20.20
2022-11-24T12:55:47.220Z,19.43
2022-11-24T12:58:25.004Z,16.17
2022-11-24T13:01:03.120Z,15.13
2022-11-24T13:03:40.659Z,15.70
2022-11-24T13:06:14.506Z,15.60
2022-11-24T13:08:42.878Z,14.70
2022-11-24T13:11:40.619Z,15.53
2022-11-24T13:14:21.773Z,15.50
2022-11-24T13:19:40.319Z,16.27
2022-11-24T13:22:17.340Z,15.50
2022-11-24T13:24:45.940Z,14.67
2022-11-24T13:27:28.397Z,14.87
2022-11-24T13:29:57.907Z,16.57
2022-11-24T13:33:03.268Z,15.00
2022-11-24T13:35:31.417Z,14.70
2022-11-24T13:37:59.599Z,14.90
2022-11-24T13:40:59.785Z,17.33
2022-11-24T13:43:31.886Z,16.30
2022-11-24T13:46:03.648Z,15.93
2022-11-24T13:48:54.199Z,15.60
2022-11-24T13:51:25.873Z,15.93
2022-11-24T13:53:56.723Z,16.53
2022-11-24T13:56:28.458Z,15.23
2022-11-24T13:58:58.542Z,15.73
2022-11-24T14:01:29.377Z,18.87
2022-11-24T14:04:30.146Z,15.23
2022-11-24T14:07:07.825Z,15.10
2022-11-24T14:09:41.747Z,16.97
2022-11-24T14:12:15.606Z,24.53
2022-11-24T14:14:45.410Z,22.23
2022-11-24T14:17:20.643Z,16.77
2022-11-24T14:19:50.225Z,18.37
2022-11-24T14:22:20.970Z,19.33
2022-11-24T14:24:54.914Z,17.17
2022-11-24T14:27:28.642Z,20.00
2022-11-24T14:29:58.359Z,17.23
2022-11-24T14:32:28.339Z,45.60
2022-11-24T14:34:56.956Z,16.93
2022-11-24T14:37:25.368Z,17.27
2022-11-24T14:39:53.991Z,22.87
2022-11-24T14:42:23.894Z,16.10
2022-11-24T14:44:55.562Z,17.30
2022-11-24T14:47:31.637Z,16.13
2022-11-24T14:50:09.392Z,15.57
2022-11-24T14:52:46.681Z,16.80
2022-11-24T14:55:29.471Z,15.87
2022-11-24T14:57:58.254Z,16.20
2022-11-24T15:00:29.163Z,18.20
2022-11-24T15:03:16.044Z,16.80
2022-11-24T15:05:58.768Z,16.97
2022-11-24T15:08:29.311Z,16.53
2022-11-24T15:11:00.027Z,16.00
2022-11-24T15:13:28.819Z,16.30
2022-11-24T15:16:02.927Z,17.73
2022-11-24T15:18:38.457Z,16.30
2022-11-24T15:21:06.964Z,17.37
2022-11-24T15:23:35.898Z,16.93
2022-11-24T15:26:31.472Z,16.53
2022-11-24T15:29:01.306Z,16.90
2022-11-24T15:31:29.495Z,15.50
2022-11-24T15:33:59.034Z,16.23
2022-11-24T15:36:27.162Z,15.33
2022-11-24T15:38:55.280Z,16.93
2022-11-24T15:41:26.745Z,15.30
2022-11-24T15:43:58.839Z,15.97
2022-11-24T15:46:27.884Z,16.10
2022-11-24T15:48:56.380Z,15.60
2022-11-24T15:51:27.749Z,16.70
2022-11-24T15:54:01.075Z,16.47
2022-11-24T15:56:31.844Z,16.77
2022-11-24T15:59:00.009Z,17.60
2022-11-24T16:01:32.119Z,17.20
2022-11-24T16:04:00.644Z,17.57
2022-11-24T16:06:30.466Z,16.93
2022-11-24T16:08:59.115Z,17.37
2022-11-24T16:11:27.742Z,17.37
2022-11-24T16:13:55.874Z,17.57
2022-11-24T16:16:25.193Z,21.23
2022-11-24T16:18:53.659Z,20.57
2022-11-24T16:21:21.830Z,27.27
2022-11-24T16:23:51.752Z,31.43
2022-11-24T16:26:19.955Z,26.17
2022-11-24T16:28:48.050Z,20.83
2022-11-24T16:31:16.698Z,26.43
2022-11-24T16:33:46.239Z,25.93
2022-11-24T16:36:14.614Z,28.93
2022-11-24T16:38:42.710Z,18.37
2022-11-24T16:41:12.402Z,16.47
2022-11-24T16:43:40.559Z,15.37
2022-11-24T16:46:18.970Z,23.27
2022-11-24T16:48:48.504Z,17.43
2022-11-24T16:51:17.768Z,17.87
2022-11-24T16:53:45.885Z,18.03
2022-11-24T16:56:16.446Z,16.07
2022-11-24T16:58:44.698Z,32.90
2022-11-24T17:01:14.569Z,17.37
2022-11-24T17:03:42.904Z,16.47
2022-11-24T17:06:13.304Z,17.57
2022-11-24T17:08:42.378Z,17.10
2022-11-24T17:11:11.978Z,15.77
2022-11-24T17:13:42.304Z,16.37
2022-11-24T17:16:12.570Z,15.47
2022-11-24T17:18:41.534Z,14.97
2022-11-24T17:21:13.813Z,16.83
2022-11-24T17:23:42.391Z,15.67
2022-11-24T17:26:13.732Z,16.43
2022-11-24T17:28:44.041Z,15.13
2022-11-24T17:31:20.106Z,16.40
2022-11-24T17:33:48.331Z,18.20
2022-11-24T17:36:16.643Z,15.73
2022-11-24T17:38:44.829Z,16.33
2022-11-24T17:41:13.438Z,18.23
2022-11-24T17:43:42.937Z,19.40
2022-11-24T17:46:11.516Z,17.03
2022-11-24T17:48:39.725Z,16.57
2022-11-24T17:51:10.640Z,18.10
2022-11-24T17:53:39.362Z,16.40
2022-11-24T17:56:08.942Z,14.77
2022-11-24T17:58:42.576Z,16.87
2022-11-24T18:01:13.443Z,17.53
2022-11-24T18:03:42.019Z,18.00
2022-11-24T18:06:11.927Z,15.93
2022-11-24T18:08:41.824Z,15.77
2022-11-24T18:11:12.384Z,17.07
2022-11-24T18:14:00.227Z,17.77
2022-11-24T18:16:31.513Z,16.37
2022-11-24T18:19:10.117Z,17.27
2022-11-24T18:21:40.043Z,17.23
2022-11-24T18:24:08.937Z,16.73
2022-11-24T18:26:37.340Z,16.50
2022-11-24T18:29:05.697Z,16.07
2022-11-24T18:31:36.110Z,16.23
2022-11-24T18:34:06.179Z,17.67
2022-11-24T18:36:34.830Z,17.10
2022-11-24T18:39:03.860Z,17.63
2022-11-24T18:41:32.420Z,15.57
2022-11-24T18:44:02.261Z,17.00
2022-11-24T18:46:30.541Z,16.83
2022-11-24T18:49:00.668Z,16.80
2022-11-24T18:51:30.135Z,17.47
2022-11-24T18:53:59.133Z,17.37
2022-11-24T18:56:27.935Z,17.30
2022-11-24T18:58:57.500Z,17.90
2022-11-24T19:01:27.257Z,18.37
2022-11-24T19:03:57.295Z,18.43
2022-11-24T19:06:31.914Z,17.60
2022-11-24T19:09:01.397Z,18.50
2022-11-24T19:11:32.307Z,17.57
2022-11-24T19:14:01.525Z,16.70
2022-11-24T19:16:29.999Z,19.03
2022-11-24T19:19:00.011Z,17.07
2022-11-24T19:21:31.666Z,16.93
2022-11-24T19:24:05.046Z,16.97
2022-11-24T19:26:34.728Z,19.50
2022-11-24T19:29:02.946Z,18.00
2022-11-24T19:31:31.176Z,17.40
2022-11-24T19:33:59.741Z,18.17
2022-11-24T19:36:29.384Z,17.73
2022-11-24T19:38:59.476Z,17.10
2022-11-24T19:41:29.369Z,17.03
2022-11-24T19:43:58.567Z,17.57
2022-11-24T19:46:29.222Z,18.30
2022-11-24T19:48:59.645Z,17.17
2022-11-24T19:51:31.581Z,17.47
2022-11-24T19:54:00.431Z,17.53
2022-11-24T19:56:31.235Z,16.97
2022-11-24T19:58:59.430Z,17.77
2022-11-24T20:01:29.205Z,29.97
2022-11-24T20:03:59.165Z,19.87
2022-11-24T20:06:28.191Z,19.77
2022-11-24T20:08:58.839Z,21.33
2022-11-24T20:11:27.812Z,20.50
2022-11-24T20:13:56.612Z,19.13
2022-11-24T20:16:28.088Z,20.30
2022-11-24T20:18:57.840Z,19.20
2022-11-24T20:21:28.961Z,19.90
2022-11-24T20:24:00.427Z,18.03
2022-11-24T20:26:31.095Z,19.73
2022-11-24T20:29:00.583Z,17.33
2022-11-24T20:31:30.968Z,18.60
2022-11-24T20:33:59.988Z,17.70
2022-11-24T20:36:30.644Z,18.07
2022-11-24T20:39:02.715Z,18.60
2022-11-24T20:41:33.681Z,19.77
2022-11-24T20:44:04.971Z,18.77
2022-11-24T20:46:34.967Z,18.47
2022-11-24T20:49:03.897Z,18.27
2022-11-24T20:51:33.516Z,19.70
2022-11-24T20:54:05.183Z,20.10
2022-11-24T20:56:36.508Z,17.13
2022-11-24T20:59:05.382Z,18.97
2022-11-24T21:01:35.816Z,17.50
2022-11-24T21:04:04.630Z,17.53
2022-11-24T21:06:32.773Z,18.40
2022-11-24T21:09:04.173Z,18.17
2022-11-24T21:11:33.206Z,18.00
2022-11-24T21:14:03.040Z,27.63
2022-11-24T21:16:32.720Z,17.07
2022-11-24T21:19:02.233Z,17.50
2022-11-24T21:21:34.094Z,19.37
2022-11-24T21:24:04.872Z,18.40
2022-11-24T21:26:35.334Z,17.93
2022-11-24T21:29:03.503Z,16.77
2022-11-24T21:31:31.622Z,17.63
2022-11-24T21:33:59.756Z,18.43
2022-11-24T21:36:27.882Z,18.63
2022-11-24T21:38:58.041Z,17.40
2022-11-24T21:41:29.693Z,16.53
2022-11-24T21:43:58.033Z,17.57
2022-11-24T21:46:26.508Z,18.43
2022-11-24T21:48:55.683Z,17.70
2022-11-24T21:51:23.811Z,17.93
2022-11-24T21:53:52.013Z,17.07
2022-11-24T21:56:22.174Z,16.43
2022-11-24T21:58:54.633Z,18.17
2022-11-24T22:01:24.249Z,16.50
2022-11-24T22:03:52.579Z,17.73
2022-11-24T22:06:21.268Z,19.37
2022-11-24T22:08:50.185Z,16.37
2022-11-24T22:11:20.379Z,17.23
2022-11-24T22:13:48.868Z,16.07
2022-11-24T22:16:20.764Z,15.43
2022-11-24T22:18:49.304Z,15.47
2022-11-24T22:21:19.089Z,16.30
2022-11-24T22:23:47.345Z,15.43
2022-11-24T22:26:16.795Z,16.07
2022-11-24T22:28:45.497Z,17.10
2022-11-24T22:31:16.212Z,17.97
2022-11-24T22:33:46.035Z,16.63
2022-11-24T22:36:18.073Z,17.87
2022-11-24T22:38:46.280Z,15.53
2022-11-24T22:41:16.531Z,16.27
2022-11-24T22:43:45.237Z,17.53
2022-11-24T22:46:15.333Z,18.20
2022-11-24T22:48:46.066Z,16.83
2022-11-24T22:51:15.950Z,17.63
2022-11-24T22:53:48.487Z,16.77
2022-11-24T22:56:17.482Z,17.20
2022-11-24T22:58:45.657Z,16.80
2022-11-24T23:01:15.388Z,16.77
2022-11-24T23:03:45.301Z,16.13
2022-11-24T23:06:15.568Z,17.03
2022-11-24T23:08:44.963Z,16.77
2022-11-24T23:11:15.041Z,16.67
2022-11-24T23:13:43.519Z,17.53
2022-11-24T23:16:13.427Z,16.33
2022-11-24T23:18:41.841Z,17.00
2022-11-24T23:21:15.391Z,17.30
2022-11-24T23:23:44.284Z,17.90
2022-11-24T23:26:14.909Z,17.07
2022-11-24T23:28:43.526Z,17.97
2022-11-24T23:31:13.410Z,16.90
2022-11-24T23:33:42.120Z,17.17
2022-11-24T23:36:13.698Z,19.37
2022-11-24T23:38:42.469Z,16.43
2022-11-24T23:41:13.139Z,17.57
2022-11-24T23:43:42.514Z,16.43
2022-11-24T23:46:13.203Z,16.90
2022-11-24T23:48:41.778Z,17.07
2022-11-24T23:51:13.895Z,16.83
2022-11-24T23:53:45.058Z,16.53
2022-11-24T23:56:15.037Z,16.87
2022-11-24T23:58:43.843Z,17.07
